createdAt,value
2017-10-05T00:00:27.948Z,1009.48
2017-10-05T00:01:08.390Z,1009.4
2017-10-05T00:01:48.844Z,1009.45
2017-10-05T00:02:29.285Z,1009.41
2017-10-05T00:03:09.709Z,1009.39
2017-10-05T00:03:50.174Z,1009.38
2017-10-05T00:06:02.902Z,1009.35
2017-10-05T00:06:43.406Z,1009.37
2017-10-05T00:07:23.828Z,1009.35
2017-10-05T00:08:04.289Z,1009.32
2017-10-05T00:08:44.714Z,1009.35
2017-10-05T00:09:25.205Z,1009.35
2017-10-05T00:10:05.622Z,1009.32
2017-10-05T00:10:46.064Z,1009.34
2017-10-05T00:11:26.546Z,1009.37
2017-10-05T00:12:06.997Z,1009.33
2017-10-05T00:12:47.440Z,1009.33
2017-10-05T00:13:27.894Z,1009.33
2017-10-05T00:14:08.331Z,1009.32
2017-10-05T00:14:48.762Z,1009.27
2017-10-05T00:15:36.164Z,1009.29
2017-10-05T00:16:16.605Z,1009.29
2017-10-05T00:16:57.040Z,1009.26
2017-10-05T00:17:37.537Z,1009.22
2017-10-05T00:20:05.508Z,1009.2
2017-10-05T00:20:45.954Z,1009.19
2017-10-05T00:21:26.442Z,1009.23
2017-10-05T00:22:06.897Z,1009.18
2017-10-05T00:22:47.319Z,1009.21
2017-10-05T00:23:27.785Z,1009.11
2017-10-05T00:24:08.266Z,1009.14
2017-10-05T00:24:48.719Z,1009.14
2017-10-05T00:25:29.155Z,1009.1
2017-10-05T00:26:09.608Z,1009.11
2017-10-05T00:26:50.014Z,1009.12
2017-10-05T00:27:30.484Z,1009.09
2017-10-05T00:28:10.973Z,1009.1
2017-10-05T00:28:51.448Z,1009.08
2017-10-05T00:29:31.867Z,1009.15
2017-10-05T00:30:12.275Z,1009.17
2017-10-05T00:30:52.725Z,1009.15
2017-10-05T00:31:33.207Z,1009.17
2017-10-05T00:32:13.632Z,1009.15
2017-10-05T00:32:54.096Z,1009.16
2017-10-05T00:33:34.511Z,1009.2
2017-10-05T00:34:14.947Z,1009.18
2017-10-05T00:34:55.411Z,1009.15
2017-10-05T00:35:35.860Z,1009.14
2017-10-05T00:36:16.317Z,1009.13
2017-10-05T00:36:56.795Z,1009.12
2017-10-05T00:37:37.237Z,1009.11
2017-10-05T00:38:17.707Z,1009.11
2017-10-05T00:38:58.132Z,1009.13
2017-10-05T00:39:38.578Z,1009.18
2017-10-05T00:40:19.028Z,1009.17
2017-10-05T00:40:59.491Z,1009.08
2017-10-05T00:41:39.936Z,1009.11
2017-10-05T00:42:20.374Z,1009.11
2017-10-05T00:43:00.801Z,1009.12
2017-10-05T00:43:41.229Z,1009.09
2017-10-05T00:44:21.766Z,1009.08
2017-10-05T00:45:02.220Z,1009.06
2017-10-05T00:45:42.637Z,1009.04
2017-10-05T00:46:23.081Z,1009.03
2017-10-05T00:47:03.551Z,1009.01
2017-10-05T00:47:43.932Z,1009.04
2017-10-05T00:48:24.358Z,1008.96
2017-10-05T00:49:04.831Z,1008.97
2017-10-05T00:49:45.282Z,1008.9
2017-10-05T00:50:25.741Z,1008.9
2017-10-05T00:51:06.188Z,1008.89
2017-10-05T00:51:46.646Z,1008.9
2017-10-05T00:52:27.081Z,1008.87
2017-10-05T00:53:07.676Z,1008.84
2017-10-05T00:55:25.478Z,1008.79
2017-10-05T00:56:05.905Z,1008.78
2017-10-05T00:56:46.394Z,1008.79
2017-10-05T00:57:26.846Z,1008.82
2017-10-05T00:58:07.293Z,1008.8
2017-10-05T00:58:47.759Z,1008.79
2017-10-05T00:59:28.222Z,1008.78
2017-10-05T01:00:09.398Z,1008.77
2017-10-05T01:00:49.833Z,1008.79
2017-10-05T01:01:30.291Z,1008.83
2017-10-05T01:02:10.715Z,1008.78
2017-10-05T01:02:51.222Z,1008.79
2017-10-05T01:03:31.605Z,1008.8
2017-10-05T01:04:12.049Z,1008.75
2017-10-05T01:04:52.487Z,1008.74
2017-10-05T01:05:32.929Z,1008.76
2017-10-05T01:06:13.437Z,1008.7
2017-10-05T01:06:53.833Z,1008.69
2017-10-05T01:07:34.299Z,1008.68
2017-10-05T01:10:02.327Z,1008.76
2017-10-05T01:10:42.704Z,1008.72
2017-10-05T01:11:23.168Z,1008.67
2017-10-05T01:12:03.584Z,1008.65
2017-10-05T01:12:44.020Z,1008.65
2017-10-05T01:13:24.468Z,1008.63
2017-10-05T01:14:04.923Z,1008.62
2017-10-05T01:14:45.382Z,1008.65
2017-10-05T01:15:25.806Z,1008.61
2017-10-05T01:16:06.248Z,1008.59
2017-10-05T01:18:18.917Z,1008.53
2017-10-05T01:18:59.393Z,1008.55
2017-10-05T01:19:39.888Z,1008.53
2017-10-05T01:20:20.308Z,1008.46
2017-10-05T01:21:00.709Z,1008.43
2017-10-05T01:21:41.172Z,1008.39
2017-10-05T01:24:09.190Z,1008.3
2017-10-05T01:24:49.653Z,1008.3
2017-10-05T01:25:30.101Z,1008.33
2017-10-05T01:26:10.564Z,1008.28
2017-10-05T01:26:51.040Z,1008.24
2017-10-05T01:27:31.505Z,1008.29
2017-10-05T01:28:11.964Z,1008.3
2017-10-05T01:28:52.420Z,1008.23
2017-10-05T01:29:32.885Z,1008.22
2017-10-05T01:30:13.323Z,1008.22
2017-10-05T01:30:53.752Z,1008.2
2017-10-05T01:31:34.206Z,1008.19
2017-10-05T01:32:14.658Z,1008.19
2017-10-05T01:32:55.102Z,1008.17
2017-10-05T01:33:35.585Z,1008.13
2017-10-05T01:34:16.018Z,1008.13
2017-10-05T01:34:56.448Z,1008.04
2017-10-05T01:35:36.906Z,1008.06
2017-10-05T01:36:17.346Z,1008.06
2017-10-05T01:36:57.794Z,1008.04
2017-10-05T01:38:55.427Z,1007.97
2017-10-05T01:39:35.894Z,1008
2017-10-05T01:40:16.354Z,1007.97
2017-10-05T01:40:56.817Z,1007.97
2017-10-05T01:41:37.251Z,1007.97
2017-10-05T01:42:17.691Z,1007.91
2017-10-05T01:42:58.183Z,1007.93
2017-10-05T01:43:38.621Z,1007.87
2017-10-05T01:44:19.791Z,1007.9
2017-10-05T01:45:00.264Z,1007.86
2017-10-05T01:45:40.704Z,1007.82
2017-10-05T01:46:21.205Z,1007.79
2017-10-05T01:47:01.654Z,1007.76
2017-10-05T01:48:54.196Z,1007.82
2017-10-05T01:49:34.685Z,1007.75
2017-10-05T01:50:15.127Z,1007.74
2017-10-05T01:50:55.633Z,1007.7
2017-10-05T01:51:36.099Z,1007.68
2017-10-05T01:52:16.524Z,1007.67
2017-10-05T01:52:56.960Z,1007.68
2017-10-05T01:53:37.395Z,1007.66
2017-10-05T01:54:17.842Z,1007.62
2017-10-05T01:54:58.289Z,1007.65
2017-10-05T01:55:38.744Z,1007.62
2017-10-05T01:56:19.171Z,1007.6
2017-10-05T01:56:59.616Z,1007.6
2017-10-05T01:57:40.030Z,1007.48
2017-10-05T01:58:20.477Z,1007.56
2017-10-05T01:59:00.947Z,1007.56
2017-10-05T01:59:41.427Z,1007.54
2017-10-05T02:00:21.888Z,1007.49
2017-10-05T02:02:34.587Z,1007.49
2017-10-05T02:03:15.010Z,1007.44
2017-10-05T02:03:55.504Z,1007.42
2017-10-05T02:04:35.956Z,1007.33
2017-10-05T02:05:16.456Z,1007.37
2017-10-05T02:05:56.934Z,1007.36
2017-10-05T02:06:37.381Z,1007.35
2017-10-05T02:08:35.049Z,1007.3
2017-10-05T02:09:15.433Z,1007.23
2017-10-05T02:09:55.870Z,1007.18
2017-10-05T02:12:23.802Z,1007.07
2017-10-05T02:13:04.276Z,1007.05
2017-10-05T02:13:44.744Z,1007.09
2017-10-05T02:14:25.193Z,1007.05
2017-10-05T02:15:05.670Z,1007.05
2017-10-05T02:15:46.141Z,1007.09
2017-10-05T02:16:26.596Z,1007.02
2017-10-05T02:17:07.073Z,1006.98
2017-10-05T02:17:47.501Z,1006.95
2017-10-05T02:20:05.331Z,1006.97
2017-10-05T02:20:45.803Z,1007.06
2017-10-05T02:21:26.230Z,1007.03
2017-10-05T02:23:39.233Z,1007.05
2017-10-05T02:24:19.673Z,1007.06
2017-10-05T02:25:00.129Z,1007.05
2017-10-05T02:25:40.564Z,1007.01
2017-10-05T02:26:21.009Z,1007.04
2017-10-05T02:27:01.448Z,1007.05
2017-10-05T02:27:41.900Z,1007.08
2017-10-05T02:28:22.316Z,1006.99
2017-10-05T02:29:02.775Z,1007.03
2017-10-05T02:29:43.202Z,1007.03
2017-10-05T02:30:23.661Z,1007.01
2017-10-05T02:31:04.103Z,1007.01
2017-10-05T02:31:44.550Z,1007.04
2017-10-05T02:32:25.008Z,1007
2017-10-05T02:33:05.462Z,1006.97
2017-10-05T02:33:45.867Z,1006.99
2017-10-05T02:34:26.313Z,1007.03
2017-10-05T02:35:06.747Z,1007.03
2017-10-05T02:35:47.206Z,1006.99
2017-10-05T02:36:27.629Z,1007.02
2017-10-05T02:37:08.083Z,1006.93
2017-10-05T02:37:48.569Z,1006.99
2017-10-05T02:40:01.293Z,1006.95
2017-10-05T02:40:41.736Z,1006.96
2017-10-05T02:41:22.207Z,1006.95
2017-10-05T02:42:02.654Z,1006.91
2017-10-05T02:42:43.135Z,1006.93
2017-10-05T02:44:55.825Z,1006.9
2017-10-05T02:45:36.287Z,1006.85
2017-10-05T02:46:16.736Z,1006.84
2017-10-05T02:46:57.247Z,1006.86
2017-10-05T02:47:37.744Z,1006.82
2017-10-05T02:48:18.216Z,1006.81
2017-10-05T02:48:58.669Z,1006.81
2017-10-05T02:49:39.135Z,1006.78
2017-10-05T02:50:19.601Z,1006.77
2017-10-05T02:51:00.046Z,1006.76
2017-10-05T02:51:40.474Z,1006.73
2017-10-05T02:52:20.911Z,1006.75
2017-10-05T02:53:01.379Z,1006.8
2017-10-05T02:53:41.806Z,1006.81
2017-10-05T02:54:22.279Z,1006.78
2017-10-05T02:55:02.761Z,1006.76
2017-10-05T02:55:43.175Z,1006.7
2017-10-05T02:56:23.636Z,1006.73
2017-10-05T02:57:04.071Z,1006.69
2017-10-05T02:57:44.546Z,1006.58
2017-10-05T02:58:24.966Z,1006.67
2017-10-05T02:59:05.431Z,1006.57
2017-10-05T02:59:45.862Z,1006.62
2017-10-05T03:00:26.339Z,1006.61
2017-10-05T03:01:06.768Z,1006.58
2017-10-05T03:01:47.189Z,1006.61
2017-10-05T03:02:27.618Z,1006.5
2017-10-05T03:03:08.055Z,1006.54
2017-10-05T03:05:25.811Z,1006.51
2017-10-05T03:06:06.281Z,1006.45
2017-10-05T03:06:46.689Z,1006.56
2017-10-05T03:07:27.120Z,1006.54
2017-10-05T03:08:07.579Z,1006.57
2017-10-05T03:08:48.050Z,1006.62
2017-10-05T03:09:28.461Z,1006.58
2017-10-05T03:10:08.933Z,1006.59
2017-10-05T03:10:49.401Z,1006.58
2017-10-05T03:11:29.822Z,1006.57
2017-10-05T03:12:10.258Z,1006.59
2017-10-05T03:14:02.860Z,1006.51
2017-10-05T03:14:43.373Z,1006.47
2017-10-05T03:15:23.828Z,1006.51
2017-10-05T03:16:04.246Z,1006.52
2017-10-05T03:16:44.680Z,1006.47
2017-10-05T03:17:25.149Z,1006.46
2017-10-05T03:18:05.591Z,1006.44
2017-10-05T03:18:46.059Z,1006.44
2017-10-05T03:20:58.804Z,1006.43
2017-10-05T03:21:39.317Z,1006.4
2017-10-05T03:22:19.775Z,1006.38
2017-10-05T03:23:00.279Z,1006.38
2017-10-05T03:23:40.653Z,1006.43
2017-10-05T03:24:21.092Z,1006.42
2017-10-05T03:25:01.520Z,1006.41
2017-10-05T03:25:41.955Z,1006.42
2017-10-05T03:26:22.384Z,1006.37
2017-10-05T03:27:02.810Z,1006.42
2017-10-05T03:27:43.215Z,1006.37
2017-10-05T03:28:23.655Z,1006.35
2017-10-05T03:29:04.096Z,1006.36
2017-10-05T03:29:44.590Z,1006.32
2017-10-05T03:30:25.022Z,1006.26
2017-10-05T03:31:05.479Z,1006.29
2017-10-05T03:31:45.882Z,1006.27
2017-10-05T03:32:26.380Z,1006.18
2017-10-05T03:33:06.889Z,1006.2
2017-10-05T03:33:47.340Z,1006.22
2017-10-05T03:34:27.821Z,1006.15
2017-10-05T03:35:08.289Z,1006.14
2017-10-05T03:35:48.724Z,1006.14
2017-10-05T03:36:29.156Z,1006.1
2017-10-05T03:37:09.608Z,1006.1
2017-10-05T03:37:50.060Z,1006.06
2017-10-05T03:40:02.732Z,1006.02
2017-10-05T03:40:43.174Z,1005.94
2017-10-05T03:41:23.627Z,1006.01
2017-10-05T03:42:04.035Z,1005.95
2017-10-05T03:42:44.483Z,1005.97
2017-10-05T03:44:57.208Z,1005.93
2017-10-05T03:45:37.694Z,1005.9
2017-10-05T03:46:18.171Z,1005.94
2017-10-05T03:46:58.596Z,1005.97
2017-10-05T03:47:39.032Z,1005.91
2017-10-05T03:48:19.474Z,1005.82
2017-10-05T03:48:59.942Z,1005.85
2017-10-05T03:49:40.389Z,1005.79
2017-10-05T03:50:20.804Z,1005.79
2017-10-05T03:51:01.315Z,1005.79
2017-10-05T03:51:41.757Z,1005.75
2017-10-05T03:52:22.212Z,1005.75
2017-10-05T03:53:02.635Z,1005.74
2017-10-05T03:53:43.051Z,1005.71
2017-10-05T03:54:23.495Z,1005.68
2017-10-05T03:55:04.523Z,1005.73
2017-10-05T03:55:44.961Z,1005.71
2017-10-05T03:56:25.405Z,1005.62
2017-10-05T03:57:05.850Z,1005.53
2017-10-05T03:57:46.291Z,1005.59
2017-10-05T03:58:26.758Z,1005.56
2017-10-05T03:59:07.258Z,1005.53
2017-10-05T03:59:47.694Z,1005.52
2017-10-05T04:00:28.173Z,1005.5
2017-10-05T04:01:08.610Z,1005.55
2017-10-05T04:01:49.056Z,1005.6
2017-10-05T04:02:29.525Z,1005.59
2017-10-05T04:03:10.000Z,1005.59
2017-10-05T04:03:50.459Z,1005.58
2017-10-05T04:04:30.894Z,1005.55
2017-10-05T04:05:11.395Z,1005.6
2017-10-05T04:05:51.817Z,1005.52
2017-10-05T04:06:32.290Z,1005.42
2017-10-05T04:07:12.754Z,1005.4
2017-10-05T04:09:25.453Z,1005.39
2017-10-05T04:10:05.884Z,1005.37
2017-10-05T04:10:46.352Z,1005.45
2017-10-05T04:11:26.811Z,1005.42
2017-10-05T04:12:07.288Z,1005.34
2017-10-05T04:12:47.699Z,1005.36
2017-10-05T04:15:15.635Z,1005.28
2017-10-05T04:15:56.098Z,1005.25
2017-10-05T04:16:36.544Z,1005.27
2017-10-05T04:17:17.000Z,1005.23
2017-10-05T04:17:57.469Z,1005.28
2017-10-05T04:18:37.868Z,1005.21
2017-10-05T04:19:18.336Z,1005.24
2017-10-05T04:21:46.235Z,1005.19
2017-10-05T04:22:26.709Z,1005.22
2017-10-05T04:23:07.257Z,1005.23
2017-10-05T04:23:47.700Z,1005.2
2017-10-05T04:24:28.156Z,1005.18
2017-10-05T04:25:08.600Z,1005.18
2017-10-05T04:25:49.008Z,1005.13
2017-10-05T04:26:29.492Z,1005.09
2017-10-05T04:27:09.882Z,1005.07
2017-10-05T04:27:50.370Z,1005.03
2017-10-05T04:28:30.812Z,1005.04
2017-10-05T04:29:11.248Z,1005.09
2017-10-05T04:29:51.667Z,1005.09
2017-10-05T04:30:32.092Z,1005.18
2017-10-05T04:31:12.549Z,1005.19
2017-10-05T04:31:52.995Z,1005.14
2017-10-05T04:32:33.418Z,1005.1
2017-10-05T04:33:13.899Z,1005.2
2017-10-05T04:33:54.393Z,1005.16
2017-10-05T04:34:34.777Z,1005.19
2017-10-05T04:35:15.188Z,1005.16
2017-10-05T04:35:56.200Z,1005.18
2017-10-05T04:36:36.672Z,1005.14
2017-10-05T04:37:17.062Z,1005.33
2017-10-05T04:37:57.500Z,1005.2
2017-10-05T04:38:37.960Z,1005.23
2017-10-05T04:39:18.445Z,1005.17
2017-10-05T04:39:58.890Z,1005.28
2017-10-05T04:40:39.336Z,1005.14
2017-10-05T04:41:19.811Z,1005.22
2017-10-05T04:42:00.309Z,1005.28
2017-10-05T04:42:40.696Z,1005.27
2017-10-05T04:43:21.225Z,1005.2
2017-10-05T04:44:01.675Z,1005.18
2017-10-05T04:44:42.123Z,1005.2
2017-10-05T04:45:22.566Z,1005.23
2017-10-05T04:46:02.999Z,1005.16
2017-10-05T04:46:43.485Z,1005.18
2017-10-05T04:47:23.879Z,1005.23
2017-10-05T04:48:05.193Z,1005.12
2017-10-05T04:48:45.648Z,1005.19
2017-10-05T04:49:26.092Z,1005.1
2017-10-05T04:50:06.554Z,1005.17
2017-10-05T04:50:46.978Z,1005.18
2017-10-05T04:51:27.422Z,1005.18
2017-10-05T04:52:07.863Z,1005.22
2017-10-05T04:52:48.301Z,1005.22
2017-10-05T04:53:28.760Z,1005.2
2017-10-05T04:54:09.237Z,1005.26
2017-10-05T04:54:49.670Z,1005.21
2017-10-05T04:55:30.172Z,1005.19
2017-10-05T04:56:10.625Z,1005.22
2017-10-05T04:56:51.062Z,1005.31
2017-10-05T04:57:31.597Z,1005.15
2017-10-05T04:58:12.007Z,1005.27
2017-10-05T04:58:53.363Z,1005.15
2017-10-05T04:59:33.733Z,1005.15
2017-10-05T05:00:14.178Z,1005.15
2017-10-05T05:00:54.638Z,1005.12
2017-10-05T05:01:35.062Z,1005.14
2017-10-05T05:02:15.535Z,1005.18
2017-10-05T05:02:55.972Z,1005.11
2017-10-05T05:03:36.485Z,1005.13
2017-10-05T05:04:16.901Z,1005.09
2017-10-05T05:04:57.340Z,1005.03
2017-10-05T05:05:37.755Z,1005.09
2017-10-05T05:06:18.218Z,1004.99
2017-10-05T05:06:58.686Z,1004.98
2017-10-05T05:07:39.124Z,1005.03
2017-10-05T05:08:19.577Z,1005
2017-10-05T05:09:00.036Z,1004.99
2017-10-05T05:09:40.472Z,1004.9
2017-10-05T05:10:20.939Z,1004.9
2017-10-05T05:11:01.390Z,1005.02
2017-10-05T05:11:41.819Z,1005.04
2017-10-05T05:12:22.251Z,1004.96
2017-10-05T05:13:02.671Z,1005.02
2017-10-05T05:13:43.112Z,1005.02
2017-10-05T05:14:23.562Z,1004.95
2017-10-05T05:15:03.976Z,1005.01
2017-10-05T05:15:44.457Z,1004.94
2017-10-05T05:16:24.923Z,1004.9
2017-10-05T05:17:05.342Z,1004.82
2017-10-05T05:17:45.812Z,1004.85
2017-10-05T05:18:26.238Z,1004.8
2017-10-05T05:19:06.730Z,1004.76
2017-10-05T05:19:47.146Z,1004.82
2017-10-05T05:20:27.592Z,1004.76
2017-10-05T05:21:08.076Z,1004.74
2017-10-05T05:21:48.480Z,1004.72
2017-10-05T05:22:28.945Z,1004.78
2017-10-05T05:23:09.344Z,1004.82
2017-10-05T05:23:49.787Z,1004.73
2017-10-05T05:24:30.222Z,1004.78
2017-10-05T05:25:10.676Z,1004.73
2017-10-05T05:25:51.198Z,1004.73
2017-10-05T05:26:32.468Z,1004.69
2017-10-05T05:27:12.932Z,1004.72
2017-10-05T05:27:53.377Z,1004.63
2017-10-05T05:28:33.831Z,1004.67
2017-10-05T05:29:14.244Z,1004.57
2017-10-05T05:31:27.021Z,1004.61
2017-10-05T05:32:07.483Z,1004.56
2017-10-05T05:32:47.963Z,1004.5
2017-10-05T05:33:28.512Z,1004.51
2017-10-05T05:34:08.946Z,1004.24
2017-10-05T05:34:49.522Z,1004.54
2017-10-05T05:35:29.988Z,1004.47
2017-10-05T05:36:10.449Z,1004.44
2017-10-05T05:36:51.712Z,1004.48
2017-10-05T05:37:32.200Z,1004.49
2017-10-05T05:38:12.646Z,1004.47
2017-10-05T05:38:53.081Z,1004.49
2017-10-05T05:39:33.520Z,1004.54
2017-10-05T05:40:14.012Z,1004.46
2017-10-05T05:40:54.445Z,1004.39
2017-10-05T05:41:34.858Z,1004.44
2017-10-05T05:42:15.291Z,1004.32
2017-10-05T05:42:55.745Z,1004.36
2017-10-05T05:43:36.208Z,1004.34
2017-10-05T05:44:16.676Z,1004.34
2017-10-05T05:44:57.820Z,1004.21
2017-10-05T05:47:10.562Z,1004.38
2017-10-05T05:47:51.047Z,1004.37
2017-10-05T05:48:31.555Z,1004.38
2017-10-05T05:49:12.046Z,1004.36
2017-10-05T05:49:52.529Z,1004.39
2017-10-05T05:50:33.185Z,1004.47
2017-10-05T05:51:13.432Z,1004.33
2017-10-05T05:51:53.883Z,1004.39
2017-10-05T05:52:34.356Z,1004.41
2017-10-05T05:55:02.317Z,1004.39
2017-10-05T05:55:42.726Z,1004.39
2017-10-05T05:56:23.169Z,1004.35
2017-10-05T05:57:03.629Z,1004.4
2017-10-05T05:57:44.077Z,1004.4
2017-10-05T06:00:01.854Z,1004.36
2017-10-05T06:00:42.406Z,1004.4
2017-10-05T06:01:22.806Z,1004.39
2017-10-05T06:02:03.236Z,1004.34
2017-10-05T06:02:43.700Z,1004.34
2017-10-05T06:03:24.195Z,1004.3
2017-10-05T06:04:04.651Z,1004.4
2017-10-05T06:04:45.109Z,1004.29
2017-10-05T06:05:25.528Z,1004.26
2017-10-05T06:06:05.972Z,1004.21
2017-10-05T06:06:46.470Z,1004.27
2017-10-05T06:07:26.885Z,1004.25
2017-10-05T06:08:07.389Z,1004.23
2017-10-05T06:08:47.824Z,1004.22
2017-10-05T06:09:28.253Z,1004.24
2017-10-05T06:10:08.714Z,1004.21
2017-10-05T06:10:49.177Z,1004.15
2017-10-05T06:13:17.109Z,1004.26
2017-10-05T06:13:57.557Z,1004.2
2017-10-05T06:14:38.040Z,1004.21
2017-10-05T06:15:18.457Z,1004.25
2017-10-05T06:15:58.916Z,1004.26
2017-10-05T06:16:39.381Z,1004.19
2017-10-05T06:17:19.846Z,1004.18
2017-10-05T06:18:00.346Z,1004.21
2017-10-05T06:18:40.798Z,1004.19
2017-10-05T06:19:21.213Z,1004.22
2017-10-05T06:20:01.678Z,1004.26
2017-10-05T06:20:42.112Z,1004.26
2017-10-05T06:21:22.587Z,1004.28
2017-10-05T06:22:03.023Z,1004.24
2017-10-05T06:22:43.492Z,1004.29
2017-10-05T06:23:23.951Z,1004.32
2017-10-05T06:24:04.387Z,1004.37
2017-10-05T06:24:44.853Z,1004.31
2017-10-05T06:25:25.335Z,1004.32
2017-10-05T06:26:05.806Z,1004.28
2017-10-05T06:26:46.221Z,1004.35
2017-10-05T06:27:26.678Z,1004.32
2017-10-05T06:28:07.171Z,1004.22
2017-10-05T06:28:47.617Z,1004.27
2017-10-05T06:29:28.144Z,1004.28
2017-10-05T06:30:08.665Z,1004.17
2017-10-05T06:30:49.110Z,1004.21
2017-10-05T06:31:29.547Z,1004.22
2017-10-05T06:32:10.016Z,1004.12
2017-10-05T06:32:50.962Z,1004.14
2017-10-05T06:33:31.368Z,1004.1
2017-10-05T06:34:11.827Z,1004.09
2017-10-05T06:34:52.288Z,1004.03
2017-10-05T06:35:32.740Z,1004.05
2017-10-05T06:36:13.252Z,1004.06
2017-10-05T06:36:53.751Z,1004.06
2017-10-05T06:37:34.184Z,1004.02
2017-10-05T06:38:14.649Z,1003.96
2017-10-05T06:38:55.107Z,1004.07
2017-10-05T06:39:35.591Z,1004.01
2017-10-05T06:40:16.032Z,1004.05
2017-10-05T06:40:56.463Z,1004.05
2017-10-05T06:41:36.929Z,1004.11
2017-10-05T06:42:17.348Z,1004.18
2017-10-05T06:42:57.827Z,1004.19
2017-10-05T06:43:38.286Z,1004.14
2017-10-05T06:44:18.712Z,1004.15
2017-10-05T06:44:59.144Z,1004.09
2017-10-05T06:45:39.588Z,1004.17
2017-10-05T06:46:20.047Z,1004.07
2017-10-05T06:47:00.455Z,1004.08
2017-10-05T06:47:40.898Z,1004.04
2017-10-05T06:48:21.371Z,1004.05
2017-10-05T06:50:39.180Z,1004.02
2017-10-05T06:51:19.689Z,1004.11
2017-10-05T06:52:00.099Z,1004.06
2017-10-05T06:52:40.578Z,1003.9
2017-10-05T06:53:21.126Z,1003.98
2017-10-05T06:54:01.617Z,1003.91
2017-10-05T06:54:42.123Z,1003.92
2017-10-05T06:55:22.595Z,1003.98
2017-10-05T06:56:03.064Z,1003.91
2017-10-05T06:56:43.573Z,1003.93
2017-10-05T06:57:24.066Z,1003.86
2017-10-05T06:58:04.546Z,1003.89
2017-10-05T06:58:45.002Z,1003.89
2017-10-05T06:59:25.510Z,1003.92
2017-10-05T07:00:05.963Z,1003.9
2017-10-05T07:01:58.527Z,1003.88
2017-10-05T07:02:38.946Z,1003.77
2017-10-05T07:03:19.438Z,1003.99
2017-10-05T07:03:59.921Z,1003.93
2017-10-05T07:04:40.405Z,1003.77
2017-10-05T07:05:20.880Z,1003.83
2017-10-05T07:06:01.344Z,1003.69
2017-10-05T07:06:41.884Z,1003.76
2017-10-05T07:07:22.353Z,1003.82
2017-10-05T07:08:02.833Z,1003.68
2017-10-05T07:08:43.296Z,1003.73
2017-10-05T07:09:23.736Z,1003.65
2017-10-05T07:10:04.250Z,1003.64
2017-10-05T07:13:29.535Z,1003.63
2017-10-05T07:14:10.042Z,1003.64
2017-10-05T07:14:50.499Z,1003.67
2017-10-05T07:15:30.976Z,1003.69
2017-10-05T07:16:12.091Z,1003.67
2017-10-05T07:16:52.233Z,1003.72
2017-10-05T07:17:32.712Z,1003.75
2017-10-05T07:20:00.770Z,1003.74
2017-10-05T07:20:41.280Z,1003.83
2017-10-05T07:21:21.820Z,1003.62
2017-10-05T07:22:02.284Z,1003.78
2017-10-05T07:22:42.826Z,1003.84
2017-10-05T07:23:23.226Z,1003.83
2017-10-05T07:24:03.736Z,1003.82
2017-10-05T07:24:44.193Z,1003.88
2017-10-05T07:25:24.663Z,1003.75
2017-10-05T07:26:05.178Z,1003.9
2017-10-05T07:26:45.676Z,1003.83
2017-10-05T07:28:58.428Z,1003.93
2017-10-05T07:29:38.914Z,1003.95
2017-10-05T07:31:36.538Z,1003.86
2017-10-05T07:32:17.055Z,1003.88
2017-10-05T07:32:57.519Z,1003.9
2017-10-05T07:33:38.015Z,1003.88
2017-10-05T07:34:18.614Z,1003.88
2017-10-05T07:34:59.191Z,1003.95
2017-10-05T07:35:39.582Z,1003.87
2017-10-05T07:36:20.012Z,1003.93
2017-10-05T07:37:00.567Z,1003.85
2017-10-05T07:37:40.996Z,1003.84
2017-10-05T07:38:21.464Z,1003.92
2017-10-05T07:39:01.973Z,1003.78
2017-10-05T07:39:42.409Z,1003.79
2017-10-05T07:40:22.957Z,1003.77
2017-10-05T07:42:40.940Z,1003.9
2017-10-05T07:43:21.321Z,1003.73
2017-10-05T07:44:01.799Z,1003.81
2017-10-05T07:44:42.265Z,1003.84
2017-10-05T07:45:22.829Z,1003.77
2017-10-05T07:46:03.373Z,1003.79
2017-10-05T07:46:43.940Z,1003.73
2017-10-05T07:47:24.524Z,1003.73
2017-10-05T07:48:05.115Z,1003.79
2017-10-05T07:48:45.653Z,1003.76
2017-10-05T07:49:26.133Z,1003.82
2017-10-05T07:50:06.624Z,1003.71
2017-10-05T07:50:47.220Z,1003.71
2017-10-05T07:53:05.089Z,1003.69
2017-10-05T07:53:45.571Z,1003.7
2017-10-05T07:54:26.170Z,1003.7
2017-10-05T07:55:06.648Z,1003.6
2017-10-05T07:55:47.185Z,1003.64
2017-10-05T07:56:27.744Z,1003.51
2017-10-05T07:57:08.191Z,1003.58
2017-10-05T07:57:48.642Z,1003.53
2017-10-05T07:58:29.116Z,1003.64
2017-10-05T07:59:09.551Z,1003.56
2017-10-05T07:59:50.093Z,1003.58
2017-10-05T08:00:30.529Z,1003.55
2017-10-05T08:01:11.116Z,1003.56
2017-10-05T08:01:51.569Z,1003.48
2017-10-05T08:02:32.011Z,1003.44
2017-10-05T08:03:12.454Z,1003.52
2017-10-05T08:03:52.892Z,1003.39
2017-10-05T08:04:33.354Z,1003.32
2017-10-05T08:05:13.765Z,1003.3
2017-10-05T08:05:54.253Z,1003.25
2017-10-05T08:06:34.739Z,1003.29
2017-10-05T08:08:47.473Z,1003.23
2017-10-05T08:09:28.575Z,1003.21
2017-10-05T08:10:09.233Z,1003.31
2017-10-05T08:10:49.683Z,1003.35
2017-10-05T08:11:30.179Z,1003.34
2017-10-05T08:12:10.636Z,1003.28
2017-10-05T08:12:51.097Z,1003.23
2017-10-05T08:13:31.544Z,1003.24
2017-10-05T08:14:11.984Z,1003.37
2017-10-05T08:14:52.508Z,1003.33
2017-10-05T08:15:32.953Z,1003.29
2017-10-05T08:16:13.424Z,1003.29
2017-10-05T08:18:26.206Z,1003.36
2017-10-05T08:19:06.700Z,1003.33
2017-10-05T08:19:47.238Z,1003.24
2017-10-05T08:20:27.718Z,1003.28
2017-10-05T08:21:08.234Z,1003.4
2017-10-05T08:21:48.757Z,1003.23
2017-10-05T08:22:29.258Z,1003.29
2017-10-05T08:23:09.743Z,1003.24
2017-10-05T08:25:07.357Z,1003.16
2017-10-05T08:25:47.852Z,1003.23
2017-10-05T08:26:28.363Z,1003.39
2017-10-05T08:27:08.868Z,1003.26
2017-10-05T08:27:49.343Z,1003.22
2017-10-05T08:28:29.886Z,1003.19
2017-10-05T08:29:10.361Z,1003.17
2017-10-05T08:29:50.922Z,1003.19
2017-10-05T08:30:31.383Z,1003.35
2017-10-05T08:31:12.566Z,1003.27
2017-10-05T08:31:53.019Z,1003.27
2017-10-05T08:32:33.677Z,1003.27
2017-10-05T08:33:14.144Z,1003.17
2017-10-05T08:33:54.578Z,1003.27
2017-10-05T08:34:35.059Z,1003.29
2017-10-05T08:35:16.543Z,1003.28
2017-10-05T08:35:57.071Z,1003.29
2017-10-05T08:36:37.609Z,1003.24
2017-10-05T08:38:55.533Z,1003.08
2017-10-05T08:39:36.056Z,1003
2017-10-05T08:40:16.572Z,1002.94
2017-10-05T08:40:57.113Z,1003.05
2017-10-05T08:41:37.668Z,1003.11
2017-10-05T08:42:18.123Z,1003.04
2017-10-05T08:42:58.674Z,1003.03
2017-10-05T08:43:39.159Z,1002.89
2017-10-05T08:44:19.631Z,1002.98
2017-10-05T08:46:37.587Z,1002.78
2017-10-05T08:47:18.016Z,1002.86
2017-10-05T08:47:58.483Z,1002.92
2017-10-05T08:48:38.950Z,1003.01
2017-10-05T08:49:19.434Z,1003.03
2017-10-05T08:50:00.550Z,1003.01
2017-10-05T08:50:41.057Z,1003.1
2017-10-05T08:51:21.533Z,1003.12
2017-10-05T08:52:02.008Z,1003.11
2017-10-05T08:52:42.492Z,1003.02
2017-10-05T08:53:23.020Z,1003.06
2017-10-05T08:54:03.556Z,1002.96
2017-10-05T08:54:44.008Z,1002.81
2017-10-05T08:55:24.459Z,1002.93
2017-10-05T08:56:04.912Z,1002.9
2017-10-05T08:56:45.418Z,1002.97
2017-10-05T08:57:26.570Z,1002.9
2017-10-05T08:58:07.160Z,1002.9
2017-10-05T08:58:47.709Z,1002.82
2017-10-05T08:59:28.167Z,1002.87
2017-10-05T09:00:08.685Z,1002.67
2017-10-05T09:00:49.158Z,1002.89
2017-10-05T09:01:29.607Z,1002.89
2017-10-05T09:02:10.060Z,1002.59
2017-10-05T09:02:50.653Z,1002.71
2017-10-05T09:03:31.075Z,1002.82
2017-10-05T09:04:11.717Z,1002.82
2017-10-05T09:04:52.207Z,1002.75
2017-10-05T09:05:32.697Z,1002.72
2017-10-05T09:07:50.483Z,1002.77
2017-10-05T09:08:30.931Z,1002.76
2017-10-05T09:09:11.347Z,1002.88
2017-10-05T09:09:51.863Z,1002.76
2017-10-05T09:10:32.314Z,1002.78
2017-10-05T09:11:12.775Z,1002.9
2017-10-05T09:11:53.351Z,1002.89
2017-10-05T09:12:33.813Z,1002.93
2017-10-05T09:13:14.276Z,1002.95
2017-10-05T09:13:54.745Z,1002.71
2017-10-05T09:16:12.588Z,1002.34
2017-10-05T09:16:53.070Z,1002.72
2017-10-05T09:17:33.521Z,1002.66
2017-10-05T09:18:14.010Z,1002.59
2017-10-05T09:20:26.851Z,1002.64
2017-10-05T09:21:07.482Z,1002.67
2017-10-05T09:21:47.957Z,1002.62